createdAt,value
2022-12-15T00:02:35.678Z,14.30
2022-12-15T00:05:22.105Z,12.98
2022-12-15T00:08:07.421Z,13.55
2022-12-15T00:10:53.791Z,13.05
2022-12-15T00:13:39.315Z,13.65
2022-12-15T00:16:25.085Z,12.95
2022-12-15T00:19:10.450Z,12.88
2022-12-15T00:21:55.666Z,13.25
2022-12-15T00:24:40.803Z,14.20
2022-12-15T00:27:26.044Z,13.65
2022-12-15T00:30:11.579Z,14.20
2022-12-15T00:32:56.819Z,12.90
2022-12-15T00:35:42.157Z,13.32
2022-12-15T00:38:29.900Z,12.55
2022-12-15T00:40:59.452Z,12.70
2022-12-15T00:43:28.778Z,12.77
2022-12-15T00:46:14.448Z,12.85
2022-12-15T00:48:42.109Z,13.15
2022-12-15T00:51:09.138Z,13.80
2022-12-15T00:53:54.793Z,13.48
2022-12-15T00:56:39.983Z,12.35
2022-12-15T00:59:25.158Z,11.73
2022-12-15T01:02:10.422Z,12.90
2022-12-15T01:04:56.013Z,12.73
2022-12-15T01:07:41.395Z,13.20
2022-12-15T01:10:26.673Z,13.35
2022-12-15T01:13:12.104Z,12.45
2022-12-15T01:15:58.436Z,12.45
2022-12-15T01:18:44.334Z,12.05
2022-12-15T01:21:16.697Z,14.45
2022-12-15T01:23:43.411Z,12.10
2022-12-15T01:26:10.084Z,11.93
2022-12-15T01:28:36.894Z,12.85
2022-12-15T01:31:11.478Z,11.55
2022-12-15T01:33:39.751Z,13.18
2022-12-15T01:36:06.684Z,12.10
2022-12-15T01:38:33.473Z,12.73
2022-12-15T01:41:07.187Z,12.45
2022-12-15T01:43:37.542Z,12.02
2022-12-15T01:46:18.044Z,12.23
2022-12-15T01:48:51.662Z,11.50
2022-12-15T01:51:22.500Z,13.02
2022-12-15T01:53:58.945Z,12.60
2022-12-15T01:56:27.104Z,11.77
2022-12-15T01:58:56.613Z,12.40
2022-12-15T02:01:23.493Z,11.60
2022-12-15T02:03:57.639Z,12.85
2022-12-15T02:06:26.082Z,12.02
2022-12-15T02:08:55.615Z,12.80
2022-12-15T02:11:51.609Z,12.10
2022-12-15T02:14:52.950Z,12.32
2022-12-15T02:17:42.146Z,11.85
2022-12-15T02:20:30.369Z,12.48
2022-12-15T02:23:24.442Z,10.10
2022-12-15T02:26:12.808Z,11.10
2022-12-15T02:28:56.523Z,11.88
2022-12-15T02:31:49.974Z,12.15
2022-12-15T02:34:41.245Z,11.05
2022-12-15T02:37:16.038Z,11.13
2022-12-15T02:39:42.898Z,12.20
2022-12-15T02:42:13.170Z,11.52
2022-12-15T02:44:43.436Z,10.98
2022-12-15T02:47:46.265Z,11.98
2022-12-15T02:50:25.086Z,11.63
2022-12-15T02:53:19.474Z,12.23
2022-12-15T02:56:23.785Z,11.13
2022-12-15T02:59:12.789Z,10.98
2022-12-15T03:02:02.473Z,11.90
2022-12-15T03:04:33.895Z,12.55
2022-12-15T03:07:08.610Z,11.90
2022-12-15T03:09:35.541Z,11.88
2022-12-15T03:12:02.338Z,12.15
2022-12-15T03:14:29.057Z,12.10
2022-12-15T03:16:56.071Z,12.43
2022-12-15T03:19:22.989Z,12.93
2022-12-15T03:21:49.678Z,12.02
2022-12-15T03:24:16.391Z,11.73
2022-12-15T03:26:43.656Z,12.43
2022-12-15T03:29:10.597Z,12.70
2022-12-15T03:31:37.327Z,12.45
2022-12-15T03:34:04.134Z,11.77
2022-12-15T03:36:30.806Z,12.35
2022-12-15T03:38:57.442Z,11.48
2022-12-15T03:41:24.068Z,12.07
2022-12-15T03:43:50.752Z,12.00
2022-12-15T03:46:17.547Z,10.95
2022-12-15T03:48:44.270Z,11.48
2022-12-15T03:51:10.969Z,11.68
2022-12-15T03:53:37.792Z,11.60
2022-12-15T03:56:04.607Z,10.82
2022-12-15T03:58:31.303Z,11.02
2022-12-15T04:00:58.057Z,12.07
2022-12-15T04:03:28.180Z,11.55
2022-12-15T04:05:55.213Z,12.38
2022-12-15T04:08:26.574Z,12.25
2022-12-15T04:10:55.402Z,11.10
2022-12-15T04:13:22.057Z,10.63
2022-12-15T04:15:48.738Z,12.00
2022-12-15T04:18:15.470Z,11.30
2022-12-15T04:20:42.192Z,10.75
2022-12-15T04:23:09.086Z,10.60
2022-12-15T04:25:55.625Z,11.50
2022-12-15T04:28:41.334Z,10.40
2022-12-15T04:31:36.333Z,10.32
2022-12-15T04:34:24.889Z,11.80
2022-12-15T04:37:12.706Z,10.70
2022-12-15T04:40:02.529Z,10.63
2022-12-15T04:42:49.945Z,10.80
2022-12-15T04:45:38.510Z,10.50
2022-12-15T04:48:24.138Z,11.07
2022-12-15T04:51:09.493Z,9.15
2022-12-15T04:53:54.576Z,10.13
2022-12-15T04:56:40.386Z,11.13
2022-12-15T04:59:25.545Z,10.63
2022-12-15T05:02:10.909Z,10.70
2022-12-15T05:04:56.618Z,10.23
2022-12-15T05:07:43.867Z,10.40
2022-12-15T05:10:29.685Z,10.95
2022-12-15T05:13:23.197Z,11.70
2022-12-15T05:16:08.868Z,10.70
2022-12-15T05:18:54.401Z,10.52
2022-12-15T05:21:39.632Z,10.13
2022-12-15T05:24:24.921Z,10.18
2022-12-15T05:27:10.065Z,11.05
2022-12-15T05:29:55.266Z,9.88
2022-12-15T05:32:21.960Z,10.35
2022-12-15T05:34:48.685Z,9.50
2022-12-15T05:37:15.285Z,9.48
2022-12-15T05:39:42.300Z,10.75
2022-12-15T05:42:09.088Z,11.57
2022-12-15T05:44:35.734Z,9.63
2022-12-15T05:47:02.436Z,10.35
2022-12-15T05:49:29.185Z,9.55
2022-12-15T05:51:57.133Z,9.48
2022-12-15T05:54:23.749Z,9.55
2022-12-15T05:56:50.691Z,9.27
2022-12-15T05:59:18.952Z,9.63
2022-12-15T06:01:45.704Z,10.10
2022-12-15T06:04:12.729Z,9.48
2022-12-15T06:06:40.314Z,10.85
2022-12-15T06:09:07.345Z,9.90
2022-12-15T06:11:34.039Z,10.23
2022-12-15T06:14:00.789Z,10.75
2022-12-15T06:16:30.511Z,10.10
2022-12-15T06:19:00.305Z,9.50
2022-12-15T06:21:30.529Z,9.95
2022-12-15T06:23:57.338Z,9.93
2022-12-15T06:26:29.813Z,10.02
2022-12-15T06:31:26.048Z,9.23
2022-12-15T06:34:01.370Z,9.70
2022-12-15T06:36:30.533Z,10.35
2022-12-15T06:39:01.736Z,10.32
2022-12-15T06:41:32.446Z,10.55
2022-12-15T06:44:00.208Z,10.55
2022-12-15T06:46:29.745Z,9.45
2022-12-15T06:48:57.446Z,10.25
2022-12-15T06:51:25.346Z,10.07
2022-12-15T06:53:54.219Z,9.70
2022-12-15T06:56:34.432Z,11.43
2022-12-15T06:59:03.477Z,12.05
2022-12-15T07:01:31.194Z,14.77
2022-12-15T07:03:59.990Z,13.85
2022-12-15T07:06:27.397Z,12.82
2022-12-15T07:08:56.324Z,12.38
2022-12-15T07:11:23.745Z,10.85
2022-12-15T07:13:52.196Z,11.30
2022-12-15T07:16:21.366Z,11.43
2022-12-15T07:18:48.261Z,11.80
2022-12-15T07:21:15.021Z,12.75
2022-12-15T07:23:57.729Z,11.23
2022-12-15T07:26:25.523Z,11.05
2022-12-15T07:28:53.354Z,11.02
2022-12-15T07:31:20.778Z,12.98
2022-12-15T07:33:48.239Z,11.23
2022-12-15T07:36:15.750Z,10.98
2022-12-15T07:38:42.843Z,11.63
2022-12-15T07:41:09.917Z,11.63
2022-12-15T07:43:38.450Z,12.95
2022-12-15T07:46:06.167Z,11.63
2022-12-15T07:48:33.573Z,10.48
2022-12-15T07:51:10.967Z,10.93
2022-12-15T07:53:39.932Z,12.00
2022-12-15T07:56:09.328Z,11.55
2022-12-15T07:58:37.814Z,12.75
2022-12-15T08:01:06.869Z,12.38
2022-12-15T08:03:34.642Z,11.43
2022-12-15T08:06:12.605Z,12.05
2022-12-15T08:08:40.445Z,10.68
2022-12-15T08:11:08.989Z,12.45
2022-12-15T08:16:23.330Z,12.02
2022-12-15T08:18:50.072Z,11.80
2022-12-15T08:21:17.472Z,14.02
2022-12-15T08:23:44.277Z,12.75
2022-12-15T08:26:17.633Z,12.13
2022-12-15T08:28:45.795Z,11.27
2022-12-15T08:31:18.384Z,12.10
2022-12-15T08:33:46.287Z,12.88
2022-12-15T08:36:15.067Z,13.45
2022-12-15T08:38:43.015Z,11.90
2022-12-15T08:41:12.337Z,12.00
2022-12-15T08:43:47.233Z,11.77
2022-12-15T08:46:17.248Z,13.35
2022-12-15T08:48:45.049Z,14.10
2022-12-15T08:51:12.289Z,12.40
2022-12-15T08:53:39.012Z,13.10
2022-12-15T08:56:12.198Z,11.68
2022-12-15T08:58:39.143Z,12.75
2022-12-15T09:01:08.425Z,12.85
2022-12-15T09:03:36.471Z,11.98
2022-12-15T09:06:08.049Z,12.70
2022-12-15T09:08:35.273Z,12.60
2022-12-15T09:11:02.344Z,11.52
2022-12-15T09:13:29.646Z,13.10
2022-12-15T09:16:13.740Z,12.63
2022-12-15T09:18:46.522Z,12.90
2022-12-15T09:21:14.506Z,11.70
2022-12-15T09:23:41.326Z,13.98
2022-12-15T09:26:10.897Z,12.40
2022-12-15T09:28:38.358Z,14.50
2022-12-15T09:31:25.939Z,12.45
2022-12-15T09:33:55.137Z,12.82
2022-12-15T09:36:22.723Z,12.88
2022-12-15T09:38:49.822Z,13.70
2022-12-15T09:41:25.436Z,13.60
2022-12-15T09:44:04.769Z,13.48
2022-12-15T09:47:05.854Z,13.60
2022-12-15T09:49:46.389Z,14.13
2022-12-15T09:52:14.085Z,12.40
2022-12-15T09:54:43.037Z,13.35
2022-12-15T09:57:35.918Z,13.70
2022-12-15T10:00:24.792Z,11.75
2022-12-15T10:03:20.660Z,12.80
2022-12-15T10:06:16.115Z,12.82
2022-12-15T10:08:55.663Z,12.80
2022-12-15T10:11:38.597Z,13.73
2022-12-15T10:14:37.470Z,12.88
2022-12-15T10:17:25.306Z,13.32
2022-12-15T10:20:08.090Z,13.75
2022-12-15T10:25:30.028Z,13.65
2022-12-15T10:28:03.924Z,13.38
2022-12-15T10:30:30.881Z,13.38
2022-12-15T10:33:19.983Z,15.55
2022-12-15T10:35:47.684Z,12.15
2022-12-15T10:38:28.564Z,13.50
2022-12-15T10:40:59.091Z,14.43
2022-12-15T10:43:40.367Z,14.02
2022-12-15T10:46:20.259Z,12.50
2022-12-15T10:48:58.421Z,14.40
2022-12-15T10:51:42.570Z,13.82
2022-12-15T10:54:15.347Z,13.57
2022-12-15T10:56:57.269Z,13.38
2022-12-15T10:59:38.370Z,13.17
2022-12-15T11:05:15.617Z,12.20
2022-12-15T11:07:46.281Z,12.18
2022-12-15T11:10:25.403Z,11.73
2022-12-15T11:13:00.175Z,11.60
2022-12-15T11:15:39.137Z,11.15
2022-12-15T11:18:21.211Z,10.50
2022-12-15T11:20:59.768Z,11.35
2022-12-15T11:23:46.812Z,12.13
2022-12-15T11:26:30.274Z,11.85
2022-12-15T11:29:02.567Z,10.60
2022-12-15T11:31:37.441Z,11.23
2022-12-15T11:34:11.256Z,11.80
2022-12-15T11:37:08.509Z,10.88
2022-12-15T11:40:23.576Z,12.25
2022-12-15T11:42:56.219Z,11.75
2022-12-15T11:48:20.122Z,11.55
2022-12-15T11:51:02.022Z,14.02
2022-12-15T11:53:56.076Z,11.03
2022-12-15T11:56:34.401Z,12.27
2022-12-15T11:59:44.635Z,12.63
2022-12-15T12:02:36.733Z,12.40
2022-12-15T12:05:22.385Z,12.95
2022-12-15T12:08:22.957Z,12.77
2022-12-15T12:11:01.382Z,13.50
2022-12-15T12:13:51.130Z,13.00
2022-12-15T12:16:41.023Z,13.50
2022-12-15T12:19:16.043Z,15.07
2022-12-15T12:21:51.072Z,12.45
2022-12-15T12:24:32.884Z,12.80
2022-12-15T12:27:25.010Z,13.23
2022-12-15T12:30:13.061Z,12.75
2022-12-15T12:32:50.474Z,12.70
2022-12-15T12:35:46.619Z,13.63
2022-12-15T12:38:22.354Z,14.20
2022-12-15T12:41:10.610Z,13.73
2022-12-15T12:43:50.915Z,14.32
2022-12-15T12:46:25.641Z,14.23
2022-12-15T12:48:58.177Z,13.60
2022-12-15T12:51:25.451Z,13.55
2022-12-15T12:53:53.741Z,13.90
2022-12-15T12:56:41.905Z,14.05
2022-12-15T12:59:33.940Z,13.77
2022-12-15T13:02:21.595Z,14.83
2022-12-15T13:05:00.443Z,14.75
2022-12-15T13:07:36.394Z,15.25
2022-12-15T13:10:18.474Z,15.07
2022-12-15T13:15:39.319Z,13.63
2022-12-15T13:18:22.362Z,14.13
2022-12-15T13:20:53.551Z,14.27
2022-12-15T13:23:23.323Z,14.10
2022-12-15T13:25:55.925Z,14.63
2022-12-15T13:28:42.692Z,14.32
2022-12-15T13:31:18.992Z,14.73
2022-12-15T13:33:49.006Z,13.63
2022-12-15T13:36:37.165Z,14.05
2022-12-15T13:39:12.883Z,14.18
2022-12-15T13:42:15.419Z,13.90
2022-12-15T13:44:35.446Z,13.50
2022-12-15T13:47:24.784Z,13.55
2022-12-15T13:50:17.980Z,13.20
2022-12-15T13:53:19.022Z,14.85
2022-12-15T13:55:52.389Z,13.20
2022-12-15T13:58:21.524Z,13.60
2022-12-15T14:00:54.770Z,13.35
2022-12-15T14:03:22.559Z,12.15
2022-12-15T14:05:52.651Z,13.07
2022-12-15T14:08:21.621Z,12.45
2022-12-15T14:10:52.290Z,12.55
2022-12-15T14:13:23.481Z,12.57
2022-12-15T14:16:23.395Z,11.95
2022-12-15T14:19:14.948Z,12.80
2022-12-15T14:21:53.152Z,13.82
2022-12-15T14:24:40.247Z,14.30
2022-12-15T14:27:07.681Z,14.93
2022-12-15T14:29:34.679Z,14.48
2022-12-15T14:32:01.822Z,14.15
2022-12-15T14:34:32.258Z,14.15
2022-12-15T14:37:03.253Z,14.68
2022-12-15T14:39:42.325Z,15.45
2022-12-15T14:42:21.471Z,15.57
2022-12-15T14:44:52.076Z,15.88
2022-12-15T14:47:33.948Z,16.27
2022-12-15T14:50:02.475Z,16.33
2022-12-15T14:52:41.182Z,19.20
2022-12-15T14:55:30.167Z,15.85
2022-12-15T14:57:57.047Z,17.25
2022-12-15T15:00:32.338Z,15.88
2022-12-15T15:03:05.230Z,14.18
2022-12-15T15:03:09.887Z,12.55
2022-12-15T15:03:18.221Z,17.90
2022-12-15T15:06:15.860Z,16.40
2022-12-15T15:08:47.271Z,16.95
2022-12-15T15:11:35.307Z,16.55
2022-12-15T15:14:20.442Z,16.98
2022-12-15T15:17:04.858Z,16.40
2022-12-15T15:19:39.046Z,16.90
2022-12-15T15:22:06.066Z,16.85
2022-12-15T15:24:37.201Z,16.85
2022-12-15T15:27:24.673Z,16.88
2022-12-15T15:29:52.297Z,16.58
2022-12-15T15:32:21.466Z,16.92
2022-12-15T15:34:49.104Z,16.73
2022-12-15T15:37:25.715Z,16.33
2022-12-15T15:39:54.386Z,15.88
2022-12-15T15:42:25.444Z,16.98
2022-12-15T15:44:57.181Z,16.48
2022-12-15T15:47:27.050Z,16.00
2022-12-15T15:49:55.502Z,16.67
2022-12-15T15:52:22.762Z,16.33
2022-12-15T15:54:49.930Z,15.18
2022-12-15T15:57:17.688Z,15.52
2022-12-15T15:59:46.565Z,16.25
2022-12-15T16:02:15.001Z,17.40
2022-12-15T16:04:43.195Z,16.17
2022-12-15T16:07:22.503Z,17.45
2022-12-15T16:09:49.546Z,15.65
2022-12-15T16:12:31.476Z,17.55
2022-12-15T16:14:58.110Z,17.27
2022-12-15T16:17:25.393Z,17.83
2022-12-15T16:19:52.080Z,18.02
2022-12-15T16:22:21.243Z,16.45
2022-12-15T16:24:48.387Z,18.35
2022-12-15T16:27:16.259Z,17.27
2022-12-15T16:29:43.158Z,18.73
2022-12-15T16:32:11.862Z,17.10
2022-12-15T16:34:38.847Z,18.60
2022-12-15T16:37:05.879Z,16.08
2022-12-15T16:39:34.431Z,20.33
2022-12-15T16:42:01.509Z,17.63
2022-12-15T16:44:31.903Z,16.38
2022-12-15T16:46:58.822Z,17.90
2022-12-15T16:49:27.467Z,17.77
2022-12-15T16:51:54.512Z,19.13
2022-12-15T16:54:26.867Z,17.20
2022-12-15T16:56:55.845Z,18.08
2022-12-15T16:59:34.979Z,18.90
2022-12-15T17:02:19.893Z,18.63
2022-12-15T17:04:46.725Z,19.10
2022-12-15T17:07:19.828Z,17.73
2022-12-15T17:09:48.410Z,18.17
2022-12-15T17:12:17.987Z,19.55
2022-12-15T17:14:45.109Z,18.30
2022-12-15T17:17:16.352Z,19.08
2022-12-15T17:19:58.009Z,18.50
2022-12-15T17:22:30.119Z,18.17
2022-12-15T17:24:56.867Z,19.00
2022-12-15T17:27:28.632Z,18.45
2022-12-15T17:29:57.299Z,18.65
2022-12-15T17:32:24.005Z,19.15
2022-12-15T17:34:50.762Z,17.75
2022-12-15T17:37:17.551Z,19.33
2022-12-15T17:39:50.571Z,18.48
2022-12-15T17:42:19.490Z,18.38
2022-12-15T17:44:47.761Z,18.52
2022-12-15T17:47:16.422Z,19.38
2022-12-15T17:49:43.572Z,18.42
2022-12-15T17:52:27.897Z,18.42
2022-12-15T17:54:55.448Z,19.42
2022-12-15T17:57:22.530Z,20.27
2022-12-15T17:59:49.238Z,20.02
2022-12-15T18:02:16.101Z,18.75
2022-12-15T18:04:43.401Z,18.87
2022-12-15T18:07:19.304Z,18.92
2022-12-15T18:09:46.637Z,18.42
2022-12-15T18:12:21.532Z,18.98
2022-12-15T18:14:48.294Z,18.73
2022-12-15T18:17:15.286Z,20.20
2022-12-15T18:19:41.991Z,19.08
2022-12-15T18:22:23.519Z,19.80
2022-12-15T18:24:52.497Z,19.70
2022-12-15T18:27:25.624Z,18.10
2022-12-15T18:29:52.821Z,19.88
2022-12-15T18:32:22.419Z,20.38
2022-12-15T18:34:49.385Z,20.40
2022-12-15T18:37:17.907Z,21.73
2022-12-15T18:39:46.533Z,19.88
2022-12-15T18:42:18.944Z,20.17
2022-12-15T18:44:48.857Z,19.00
2022-12-15T18:47:20.420Z,20.17
2022-12-15T18:49:47.345Z,21.10
2022-12-15T18:52:23.174Z,20.90
2022-12-15T18:54:51.634Z,19.77
2022-12-15T18:57:30.379Z,20.60
2022-12-15T19:00:01.805Z,20.27
2022-12-15T19:02:28.669Z,21.73
2022-12-15T19:04:55.433Z,21.25
2022-12-15T19:07:22.248Z,24.45
2022-12-15T19:09:49.571Z,21.67
2022-12-15T19:12:19.955Z,21.98
2022-12-15T19:14:48.927Z,22.42
2022-12-15T19:17:42.067Z,21.48
2022-12-15T19:20:36.370Z,22.00
2022-12-15T19:23:03.561Z,22.35
2022-12-15T19:25:31.361Z,21.98
2022-12-15T19:28:00.164Z,21.67
2022-12-15T19:30:29.150Z,21.42
2022-12-15T19:32:56.578Z,22.77
2022-12-15T19:35:24.662Z,23.45
2022-12-15T19:37:54.831Z,22.27
2022-12-15T19:40:30.797Z,22.58
2022-12-15T19:42:59.227Z,22.08
2022-12-15T19:45:28.059Z,22.70
2022-12-15T19:47:55.477Z,23.50
2022-12-15T19:50:24.705Z,24.33
2022-12-15T19:52:54.878Z,23.95
2022-12-15T19:55:27.652Z,22.90
2022-12-15T19:57:54.398Z,22.52
2022-12-15T20:00:22.517Z,22.73
2022-12-15T20:02:51.317Z,23.08
2022-12-15T20:05:19.306Z,23.20
2022-12-15T20:07:47.152Z,23.20
2022-12-15T20:10:29.509Z,21.90
2022-12-15T20:12:58.533Z,23.67
2022-12-15T20:15:26.302Z,23.65
2022-12-15T20:18:00.194Z,22.67
2022-12-15T20:20:28.495Z,23.67
2022-12-15T20:22:59.523Z,21.73
2022-12-15T20:25:32.161Z,21.17
2022-12-15T20:30:35.191Z,22.00
2022-12-15T20:33:05.554Z,22.65
2022-12-15T20:35:34.621Z,23.85
2022-12-15T20:38:12.454Z,25.25
2022-12-15T20:40:39.163Z,22.85
2022-12-15T20:43:17.145Z,23.55
2022-12-15T20:45:46.076Z,23.27
2022-12-15T20:48:14.491Z,22.33
2022-12-15T20:50:47.218Z,23.95
2022-12-15T20:53:18.875Z,23.42
2022-12-15T20:55:48.288Z,22.57
2022-12-15T20:58:16.157Z,23.67
2022-12-15T21:00:43.475Z,23.92
2022-12-15T21:03:28.005Z,23.00
2022-12-15T21:05:56.328Z,22.25
2022-12-15T21:08:31.635Z,23.77
2022-12-15T21:11:13.412Z,23.35
2022-12-15T21:13:40.203Z,23.42
2022-12-15T21:16:07.233Z,24.35
2022-12-15T21:19:18.027Z,23.77
2022-12-15T21:21:31.397Z,22.30
2022-12-15T21:23:59.876Z,23.33
2022-12-15T21:26:28.300Z,23.67
2022-12-15T21:28:58.980Z,26.08
2022-12-15T21:31:26.250Z,24.63
2022-12-15T21:33:53.005Z,24.60
2022-12-15T21:36:22.233Z,25.08
2022-12-15T21:38:51.816Z,25.40
2022-12-15T21:41:22.058Z,25.40
2022-12-15T21:43:49.532Z,25.55
2022-12-15T21:46:23.346Z,24.92
2022-12-15T21:49:11.451Z,23.30
2022-12-15T21:51:38.770Z,26.05
2022-12-15T21:54:13.746Z,26.60
2022-12-15T21:56:40.371Z,25.23
2022-12-15T21:59:15.952Z,24.23
2022-12-15T22:01:43.066Z,25.67
2022-12-15T22:04:41.313Z,26.05
2022-12-15T22:07:14.262Z,25.25
2022-12-15T22:09:40.952Z,24.92
2022-12-15T22:12:21.559Z,25.38
2022-12-15T22:14:48.430Z,24.52
2022-12-15T22:17:20.798Z,24.83
2022-12-15T22:19:47.644Z,24.58
2022-12-15T22:22:14.392Z,24.40
2022-12-15T22:24:41.425Z,25.83
2022-12-15T22:27:26.993Z,25.95
2022-12-15T22:29:53.664Z,25.88
2022-12-15T22:32:20.473Z,25.30
2022-12-15T22:34:47.152Z,25.05
2022-12-15T22:37:13.785Z,27.52
2022-12-15T22:39:40.430Z,26.83
2022-12-15T22:46:29.345Z,22.58
2022-12-15T22:48:56.465Z,25.48
